Home   Weather   Germany   Wittlich   Past weeks
Flag for Germany

Past Weather in Wittlich, Rhineland-Palatinate, Germany — Yesterday and Last 2 Weeks

Currently: 36 °F. Overcast. (Weather station: Spangdahlem, Germany). See more current weather

Past Weather in Wittlich — Graph

°F

Wittlich Temperature Yesterday

Maximum temperature yesterday: 43 °F (at 1:55 pm)
Minimum temperature yesterday: 34 °F (at 12:40 am)
Average temperature yesterday: 37 °F

High & Low Weather Summary for the Past Weeks

 TemperatureHumidityPressure
High48 °F (Nov 25, 12:25 pm)100% (Nov 26, 9:43 am)30.43 "Hg (Nov 26, 9:43 am)
Low30 °F (Dec 4, 12:13 pm)53% (Dec 7, 1:55 pm)29.45 "Hg (Nov 23, 2:55 pm)
Average39 °F85%30.02 "Hg
* Reported Nov 23 2:03 am — Dec 8 2:40 am, Wittlich. Weather by CustomWeather, © 2022

Note: Actual official high and low records may vary slightly from our data, if they occured in-between our weather recording intervals... More about our weather records

Wittlich Weather History for the Previous 24 Hours

Scroll right to see more
 ConditionsComfort  
Time TempWeatherWind HumidityBarometerVisibility
2:40 am
Thu, Dec 8
36 °FOvercast.7 mph81%29.84 "HgN/A
2:10 am36 °FMostly cloudy.6 mph87%29.84 "HgN/A
1:55 am35 °FPassing clouds.8 mph85%29.85 "HgN/A
12:40 am36 °FMostly cloudy.9 mph87%29.86 "HgN/A
12:10 am36 °FLow clouds.8 mph87%29.87 "HgN/A
11:55 pm
Wed, Dec 7
36 °FMostly cloudy.7 mph84%29.88 "HgN/A
10:55 pm36 °FOvercast.8 mph82%29.88 "HgN/A
10:40 pm37 °FLow clouds.9 mph81%29.89 "HgN/A
10:25 pm37 °FMostly cloudy.8 mph81%29.89 "HgN/A
9:55 pm36 °FOvercast.6 mph81%29.91 "HgN/A
9:25 pm37 °FMostly cloudy.7 mph75%29.90 "HgN/A
9:10 pm36 °FMostly cloudy.8 mph81%29.92 "HgN/A
8:14 pm36 °FMostly cloudy.7 mph81%29.92 "HgN/A
7:55 pm36 °FMostly cloudy.7 mph80%29.92 "HgN/A
7:35 pm37 °FOvercast.7 mph75%29.93 "HgN/A
7:10 pm36 °FMostly cloudy.7 mph81%29.94 "HgN/A
6:55 pm36 °FOvercast.7 mph80%29.93 "HgN/A
6:25 pm36 °FOvercast.8 mph81%29.95 "HgN/A
6:10 pm37 °FMostly cloudy.5 mph75%29.94 "HgN/A
5:55 pm36 °FMostly cloudy.No wind81%29.95 "HgN/A
5:30 pm36 °FOvercast.3 mph81%29.95 "HgN/A
5:19 pm37 °FOvercast.3 mph75%29.95 "HgN/A
5:00 pm37 °FMostly cloudy.3 mph75%29.96 "HgN/A
4:55 pm37 °FDrizzle. Mostly cloudy.5 mph77%29.96 "HgN/A
4:35 pm37 °FLight rain. Mostly cloudy.5 mph70%29.97 "HgN/A
4:10 pm39 °FMostly cloudy.6 mph65%29.96 "HgN/A
2:55 pm42 °FMostly cloudy.9 mph56%29.96 "HgN/A
1:55 pm43 °FMostly cloudy.8 mph53%29.97 "HgN/A
1:25 pm39 °FBroken clouds.7 mph65%29.98 "HgN/A
12:55 pm40 °FBroken clouds.7 mph64%29.99 "HgN/A
11:55 am40 °FPartly sunny.10 mph67%30.01 "HgN/A
10:55 am41 °FPartly sunny.9 mph68%30.03 "HgN/A
9:55 am36 °FBroken clouds.7 mph83%30.03 "HgN/A
8:55 am36 °FCloudy.5 mph85%30.03 "HgN/A
8:25 am36 °FBroken clouds.5 mph81%30.02 "HgN/A
7:55 am36 °FOvercast.6 mph87%30.02 "HgN/A
7:25 am36 °FFog.5 mph87%30.02 "Hg6 mi
7:10 am36 °FFog.6 mph87%30.02 "Hg5 mi
6:55 am36 °FFog.5 mph87%30.01 "Hg5 mi
6:25 am36 °FFog.7 mph87%30.01 "Hg6 mi
5:55 am35 °FFog.6 mph86%30.02 "Hg6 mi
4:55 am35 °FFog.6 mph87%30.02 "Hg6 mi
4:40 am36 °FFog.7 mph87%30.01 "Hg5 mi
4:25 am36 °FFog.6 mph87%30.02 "Hg5 mi
Weather by CustomWeather, © 2022

See weather overview